Flight Track Log - Related Links

Times and Time Zones

All times are in EDT time to prevent confusion due to time zone crossing. See the N516QS flight status page for this flight to view local times or setup timezone preferences in your user account.

Time Position Orientation Groundspeed Altitude Reporting Facility
EDT Latitude Longitude Course Direction KTS MPH feet Rate Location/Type
Wed 12:48:27 PM 41.3975 -81.7539 101° East 268 308 5,800  Level Cleveland Center
Wed 12:49:27 PM 41.3225 -81.7333 168° South 268 308 9,700 3,100 Climbing Cleveland Center
Wed 12:50:27 PM 41.2397 -81.6850 156° South 294 338 12,000 2,050 Climbing Cleveland Center
Wed 12:51:27 PM 41.1928 -81.5600 116° Southeast 321 369 13,800 2,150 Climbing Cleveland Center
Wed 12:52:27 PM 41.1333 -81.4378 123° Southeast 359 413 16,300 2,300 Climbing Cleveland Center
Wed 12:53:27 PM 41.0275 -81.3675 153° Southeast 404 465 18,400 2,350 Climbing Cleveland Center
Wed 12:54:27 PM 40.9194 -81.3114 159° South 412 474 21,000 2,400 Climbing Cleveland Center
Wed 12:55:27 PM 40.8094 -81.2497 157° South 427 491 23,200 2,150 Climbing Cleveland Center
Wed 12:56:27 PM 40.6931 -81.1856 157° South 452 520 25,300 2,000 Climbing Cleveland Center
Wed 12:57:27 PM 40.5767 -81.1189 156° South 462 532 27,200 1,950 Climbing Cleveland Center
Wed 12:58:27 PM 40.4519 -81.0497 157° South 462 532 29,200 2,000 Climbing Cleveland Center
Wed 12:59:27 PM 40.3269 -80.9833 158° South 475 547 31,200 1,400 Climbing Cleveland Center
Wed 01:00:27 PM 40.2022 -80.9147 157° South 485 558 32,000 1,000 Climbing Cleveland Center
Wed 01:01:27 PM 40.0731 -80.8436 157° South 490 564 33,200 1,500 Climbing Cleveland Center
Wed 01:02:27 PM 39.9525 -80.7617 152° Southeast 490 564 35,000 1,950 Climbing Cleveland Center
Wed 01:03:27 PM 39.8378 -80.6669 148° Southeast 490 564 37,100 1,600 Climbing Cleveland Center
Wed 01:05:27 PM 39.6044 -80.4722 147° Southeast 492 566 39,800 1,200 Climbing Washington Center
Wed 01:06:27 PM 39.4833 -80.3728 148° Southeast 492 566 40,700 600 Climbing Washington Center
Wed 01:07:27 PM 39.3581 -80.2731 148° Southeast 506 582 41,000 150 Climbing Washington Center
Wed 01:08:27 PM 39.2206 -80.1597 147° Southeast 526 605 41,000  Level Washington Center
Wed 01:09:27 PM 39.0975 -80.0556 147° Southeast 526 605 41,000  Level Washington Center
Wed 01:10:27 PM 38.9717 -79.9625 150° Southeast 526 605 41,000  Level Washington Center
Wed 01:11:27 PM 38.8478 -79.8644 148° Southeast 526 605 41,000  Level Washington Center
Wed 01:12:27 PM 38.7364 -79.7728 147° Southeast 526 605 41,000  Level Washington Center
Wed 01:13:27 PM 38.6128 -79.6703 147° Southeast 526 605 41,000  Level Washington Center
Wed 01:14:27 PM 38.4867 -79.5731 149° Southeast 526 605 41,000  Level Washington Center
Wed 01:15:27 PM 38.3650 -79.4739 147° Southeast 526 605 41,000  Level Washington Center
Wed 01:16:27 PM 38.2286 -79.3664 148° Southeast 526 605 41,000  Level Washington Center
Wed 01:17:27 PM 38.1044 -79.2678 148° Southeast 520 598 41,000  Level Washington Center
Wed 01:18:27 PM 37.9800 -79.1747 149° Southeast 525 604 41,000  Level Washington Center
Wed 01:19:27 PM 37.8417 -79.1311 166° South 510 587 41,000  Level Washington Center
Wed 01:20:27 PM 37.7017 -79.1406 183° South 491 565 41,000  Level Washington Center
Wed 01:21:27 PM 37.5778 -79.1686 190° South 503 579 41,000  Level Washington Center
Wed 01:22:27 PM 37.4414 -79.1936 188° South 504 580 41,000  Level Washington Center
Wed 01:23:27 PM 37.3050 -79.2211 189° South 504 580 41,000  Level Washington Center
Wed 01:24:27 PM 37.1706 -79.2486 189° South 504 580 41,000  Level Washington Center
Wed 01:25:27 PM 37.0383 -79.2764 190° South 499 574 41,000  Level Washington Center
Wed 01:26:27 PM 36.9019 -79.3008 188° South 494 568 41,000  Level Washington Center
Wed 01:27:27 PM 36.7569 -79.3303 189° South 489 563 41,000  Level Washington Center
Wed 01:28:27 PM 36.6186 -79.3572 189° South 489 563 41,000  Level Washington Center
Wed 01:29:27 PM 36.4822 -79.3817 188° South 489 563 41,000  Level Washington Center
Wed 01:30:27 PM 36.3664 -79.4097 191° South 482 555 41,000  Level Washington Center
Wed 01:31:27 PM 36.2322 -79.4339 188° South 482 555 41,000  Level Washington Center
Wed 01:32:27 PM 36.0978 -79.4583 188° South 487 560 41,000  Level Washington Center
Wed 01:33:27 PM 35.9508 -79.4844 188° South 492 566 41,000  Level Washington Center
Wed 01:34:27 PM 35.8311 -79.5092 190° South 481 554 41,000  Level Washington Center
Wed 01:35:26 PM 35.6800 -79.5375 189° South 491 565 41,000  Level Washington Center
Wed 01:36:26 PM 35.5622 -79.5625 190° South 491 565 41,000  Level Washington Center
Wed 01:37:27 PM 35.4281 -79.5864 188° South 491 565 41,000  Level Washington Center
Wed 01:38:26 PM 35.2956 -79.6103 188° South 486 559 41,000  Level Washington Center
Wed 01:39:27 PM 35.1633 -79.6342 188° South 486 559 41,000  Level Washington Center
Wed 01:41:55 PM 34.8181 -79.6939 188° South 481 554 41,000  Level Jacksonville Center
Wed 01:42:55 PM 34.6872 -79.7214 190° South 481 554 41,000  Level Jacksonville Center
Wed 01:43:55 PM 34.5503 -79.7442 188° South 486 559 41,000  Level Jacksonville Center
Wed 01:44:55 PM 34.4339 -79.7658 189° South 481 554 41,000 -200 Level Jacksonville Center
Wed 01:45:55 PM 34.3011 -79.7933 190° South 486 559 40,600 -450 Descending Jacksonville Center
Wed 01:46:55 PM 34.1772 -79.8481 200° South 480 552 40,100 -300 Descending Jacksonville Center
Wed 01:47:55 PM 34.0536 -79.9075 202° Southwest 480 552 40,000 -50 Descending Jacksonville Center
Wed 01:48:55 PM 33.9319 -79.9667 202° Southwest 480 552 40,000  Level Jacksonville Center
Wed 01:49:55 PM 33.8100 -80.0256 202° Southwest 480 552 40,000  Level Jacksonville Center
Wed 01:50:55 PM 33.6903 -80.0819 201° Southwest 474 545 40,000  Level Jacksonville Center
Wed 01:51:55 PM 33.5686 -80.1406 202° Southwest 469 540 40,000  Level Jacksonville Center
Wed 01:52:55 PM 33.4486 -80.1992 202° Southwest 469 540 40,000  Level Jacksonville Center
Wed 01:53:55 PM 33.3289 -80.2550 201° Southwest 469 540 40,000  Level Jacksonville Center
Wed 01:54:55 PM 33.2092 -80.3181 204° Southwest 469 540 40,000  Level Jacksonville Center
Wed 01:55:55 PM 33.0828 -80.3689 199° South 474 545 40,000  Level Jacksonville Center
Wed 01:56:55 PM 32.9403 -80.4397 203° Southwest 500 575 40,000  Level Jacksonville Center
Wed 01:57:55 PM 32.8203 -80.4925 200° South 494 568 40,000  Level Jacksonville Center
Wed 01:58:55 PM 32.7000 -80.5475 201° Southwest 478 550 40,000  Level Jacksonville Center
Wed 01:59:55 PM 32.5781 -80.6047 202° Southwest 459 528 40,000  Level Jacksonville Center
Wed 02:00:55 PM 32.4558 -80.6619 202° Southwest 465 535 40,000  Level Jacksonville Center
Wed 02:01:55 PM 32.3336 -80.7167 201° Southwest 473 544 40,000  Level Jacksonville Center
Wed 02:02:55 PM 32.2156 -80.7733 202° Southwest 467 537 40,000  Level Jacksonville Center
Wed 02:03:55 PM 32.0933 -80.8278 201° Southwest 467 537 40,000  Level Jacksonville Center
Wed 02:04:55 PM 31.9836 -80.8767 201° Southwest 467 537 40,000 -200 Level Jacksonville Center
Wed 02:05:55 PM 31.8467 -80.9336 199° South 467 537 39,600 -850 Descending Jacksonville Center
Wed 02:06:55 PM 31.7300 -80.9628 192° South 472 543 38,300 -1,450 Descending Jacksonville Center
Wed 02:07:55 PM 31.5822 -80.9878 188° South 487 560 36,700 -1,550 Descending Jacksonville Center
Wed 02:08:55 PM 31.4531 -81.0075 187° South 481 554 35,200 -1,550 Descending Jacksonville Center
Wed 02:09:55 PM 31.3178 -81.0369 191° South 495 570 33,600 -1,800 Descending Jacksonville Center
Wed 02:10:55 PM 31.1822 -81.0447 183° South 500 575 31,600 -2,100 Descending Jacksonville Center
Wed 02:11:55 PM 31.0467 -81.0522 183° South 493 567 29,400 -1,850 Descending Jacksonville Center
Wed 02:12:55 PM 30.9194 -81.0569 182° South 481 554 27,900 -1,450 Descending Jacksonville Center
Wed 02:13:55 PM 30.7878 -81.0597 181° South 475 547 26,500 -1,450 Descending Jacksonville Center
Wed 02:14:55 PM 30.6606 -81.0619 181° South 470 541 25,000 -1,250 Descending Jacksonville Center
Wed 02:15:55 PM 30.5375 -81.0692 183° South 457 526 24,000 -496 Descending Jacksonville Center
Wed 02:16:56 PM 30.4122 -81.0739 182° South 451 519 24,000  Level Jacksonville Center
Wed 02:17:55 PM 30.2869 -81.0764 181° South 451 519 24,000 -706 Level Jacksonville Center
Wed 02:18:55 PM 30.1639 -81.0811 182° South 451 519 22,600 -1,550 Descending Jacksonville Center
Wed 02:19:55 PM 30.0492 -81.0856 182° South 433 498 20,900 -1,700 Descending Jacksonville Center
Wed 02:20:55 PM 29.9344 -81.0925 183° South 426 490 19,200 -1,600 Descending Jacksonville Center
Wed 02:21:55 PM 29.8197 -81.0972 182° South 418 481 17,700 -1,537 Descending Jacksonville Center
Wed 02:22:17 PM 29.7778 -81.0978 181° South 409 471 17,100 -2,100 Descending Jacksonville Center
Wed 02:22:55 PM 29.7111 -81.0992 181° South 407 468 15,600 -2,612 Descending Jacksonville Center
Wed 02:23:42 PM 29.6297 -81.1053 184° South 384 442 13,400 -2,211 Descending Jacksonville Center
Wed 02:24:49 PM 29.5108 -81.1075 181° South 358 412 11,400 -1,534 Descending Jacksonville Center
Wed 02:25:55 PM 29.4169 -81.1117 182° South 343 395 10,000 -1,180 Descending Jacksonville Center
Wed 02:26:51 PM 29.3439 -81.1153 182° South 287 330 9,000 -1,077 Descending Jacksonville Center
Wed 02:27:52 PM 29.2669 -81.1239 186° South 279 321 7,900 -1,113 Descending Jacksonville Center
Wed 02:28:55 PM 29.1794 -81.1422 190° South 289 333 6,700 -1,122 Descending Jacksonville Center
Wed 02:29:55 PM 29.1044 -81.1600 192° South 289 333 5,600 -850 Descending Jacksonville Center
Wed 02:30:55 PM 29.0317 -81.1756 191° South 284 327 5,000 -300 Descending Jacksonville Center
Wed 02:31:55 PM 28.9567 -81.1889 189° South 274 315 5,000 -555 Level Jacksonville Center
Wed 02:33:48 PM 28.8833 -81.3167 237° Southwest 277 319 3,400 -694 Descending Orlando TRACON
Wed 02:34:48 PM 28.8500 -81.4000 245° Southwest 263 303 3,000 -200 Descending Orlando TRACON
Wed 02:35:48 PM 28.8000 -81.4333 210° Southwest 213 245 3,000  Level Orlando TRACON
Wed 02:36:48 PM 28.7500 -81.4667 210° Southwest 219 252 3,000 50 Level Orlando TRACON
Wed 02:37:49 PM 28.6833 -81.5000 204° Southwest 246 283 3,100  Climbing Orlando TRACON
Wed 02:38:49 PM 28.6333 -81.5333 210° Southwest 243 280 3,000 -50 Descending Orlando TRACON
Wed 02:39:49 PM 28.5667 -81.5667 204° Southwest 241 277 3,000  Level Orlando TRACON
Wed 02:40:49 PM 28.5167 -81.6167 221° Southwest 239 275 3,000 -350 Level Orlando TRACON
Wed 02:41:49 PM 28.4500 -81.6167 180° South 211 243 2,300 -500 Descending Orlando TRACON
Wed 02:42:49 PM 28.4000 -81.6000 164° South 211 243 2,000 -150 Descending Orlando TRACON
Wed 02:43:49 PM 28.3500 -81.5667 150° Southeast 183 211 2,000 50 Level Orlando TRACON
Wed 02:44:49 PM 28.3333 -81.5333 120° Southeast 180 207 2,100  Climbing Orlando TRACON
Wed 02:45:50 PM 28.3667 -81.5167 24° Northeast 178 205 2,000 -50 Descending Orlando TRACON
Wed 02:46:50 PM 28.4167 -81.4833 30° Northeast 179 206 2,000  Level Orlando TRACON
Wed 02:47:50 PM 28.4667 -81.4667 16° North 175 201 2,000 -100 Level Orlando TRACON
Wed 02:48:50 PM 28.5000 -81.4333 41° Northeast 176 203 1,800 -400 Descending Orlando TRACON
Wed 02:49:50 PM 28.5167 -81.4000 60° Northeast 119 137 1,200 -595 Descending Orlando TRACON
Wed 02:50:51 PM 28.5333 -81.3667 60° Northeast 103 119 600 -590 Descending Orlando TRACON

Login

Don't have an account? Register now (free) for customized features, flight alerts, and more!